Time;durP1;ratioP1;P1;durP2;ratioP2;P2;SDS_P1;SDS_P2;PMS_P1;PMS_P2;Temp;Humidity;BMP_temperature;BMP_pressure;BME280_temperature;BME280_humidity;BME280_pressure;Samples;Min_cycle;Max_cycle;Signal;HPM_P1;HPM_P2
2022/10/10 00:01:59;;;;;;;8.60;2.08;;;11.30;99.90;;;;;;5011657;28;20049;-84
2022/10/10 00:04:25;;;;;;;4.57;2.40;;;11.30;99.90;;;;;;5021869;28;20053;-82
2022/10/10 00:06:52;;;;;;;7.40;2.78;;;11.40;99.90;;;;;;5038204;28;20038;-82
2022/10/10 00:09:19;;;;;;;5.53;2.22;;;11.40;99.90;;;;;;5039950;28;20443;-82
2022/10/10 00:11:46;;;;;;;6.03;2.10;;;11.40;99.90;;;;;;5034342;28;20059;-82
2022/10/10 00:14:13;;;;;;;5.03;2.30;;;11.40;99.90;;;;;;5041681;28;20039;-82
2022/10/10 00:16:40;;;;;;;5.32;2.22;;;11.40;99.90;;;;;;5035172;28;20060;-81
2022/10/10 00:19:08;;;;;;;5.57;2.58;;;11.40;99.90;;;;;;5037963;28;20049;-81
2022/10/10 00:21:35;;;;;;;5.07;2.30;;;11.50;99.90;;;;;;5022881;28;20052;-81
2022/10/10 00:24:02;;;;;;;4.15;2.15;;;11.50;99.90;;;;;;5022901;28;20063;-81
2022/10/10 00:26:29;;;;;;;7.03;2.33;;;11.50;99.90;;;;;;5040880;28;20043;-82
2022/10/10 00:28:56;;;;;;;4.68;2.60;;;11.60;99.90;;;;;;5040002;28;20048;-82
2022/10/10 00:31:23;;;;;;;7.53;2.20;;;11.60;99.90;;;;;;5024408;28;20051;-82
2022/10/10 00:33:50;;;;;;;4.78;2.25;;;11.60;99.90;;;;;;5037781;28;20035;-82
2022/10/10 00:36:19;;;;;;;7.22;2.42;;;11.60;99.90;;;;;;5037183;28;20091;-82
2022/10/10 00:38:46;;;;;;;5.35;2.50;;;11.60;99.90;;;;;;5049034;22;20037;-81
2022/10/10 00:41:13;;;;;;;4.43;2.15;;;11.60;99.90;;;;;;5038048;28;20045;-81
2022/10/10 00:43:40;;;;;;;5.35;2.60;;;11.70;99.90;;;;;;5046192;28;20041;-81
2022/10/10 00:46:07;;;;;;;6.00;2.28;;;11.70;99.90;;;;;;5040235;28;20045;-81
2022/10/10 00:48:36;;;;;;;5.97;2.53;;;11.70;99.90;;;;;;5047215;28;20056;-81
2022/10/10 00:51:06;;;;;;;6.70;2.38;;;11.70;99.90;;;;;;5041789;28;20037;-81
2022/10/10 00:53:37;;;;;;;10.48;2.65;;;11.70;99.90;;;;;;5043121;28;20485;-81
2022/10/10 00:56:04;;;;;;;;;;;11.70;99.90;;;;;;5037879;28;20049;-81
2022/10/10 00:58:32;;;;;;;6.22;2.25;;;11.80;99.90;;;;;;5023431;28;20381;-81
2022/10/10 01:00:59;;;;;;;8.32;2.80;;;11.80;99.90;;;;;;5029611;28;20041;-81
2022/10/10 01:03:26;;;;;;;5.07;2.03;;;11.80;99.90;;;;;;5036848;28;20131;-81
2022/10/10 01:05:53;;;;;;;5.70;2.00;;;11.80;99.90;;;;;;5029951;28;20052;-81
2022/10/10 01:08:21;;;;;;;4.93;2.05;;;11.90;99.90;;;;;;5029646;28;20044;-81
2022/10/10 01:11:12;;;;;;;9.25;2.90;;;11.90;99.90;;;;;;5034832;28;20040;-81
2022/10/10 01:13:46;;;;;;;6.40;2.30;;;11.90;99.90;;;;;;5036839;28;20034;-81
2022/10/10 01:16:19;;;;;;;6.20;2.20;;;11.90;99.90;;;;;;5026455;28;20041;-81
2022/10/10 01:18:52;;;;;;;5.97;2.03;;;11.90;99.90;;;;;;5029201;28;20041;-81
2022/10/10 01:21:25;;;;;;;5.70;2.15;;;11.90;99.90;;;;;;5012290;28;20494;-81
2022/10/10 01:24:27;;;;;;;5.35;2.30;;;11.90;99.90;;;;;;5010540;28;20050;-81
2022/10/10 01:27:10;;;;;;;4.55;2.28;;;12.00;99.90;;;;;;5033888;28;20042;-81
2022/10/10 01:29:42;;;;;;;6.38;2.35;;;12.00;99.90;;;;;;5028256;28;20064;-81
2022/10/10 01:32:11;;;;;;;4.22;2.10;;;12.00;99.90;;;;;;5027321;28;20052;-81
2022/10/10 01:34:43;;;;;;;6.18;2.33;;;12.00;99.90;;;;;;5030660;28;20061;-81
2022/10/10 01:37:17;;;;;;;4.55;2.20;;;12.10;99.90;;;;;;5039047;28;20064;-80
2022/10/10 01:39:52;;;;;;;4.72;1.90;;;12.10;99.90;;;;;;5034584;28;20052;-81
2022/10/10 01:42:24;;;;;;;5.90;2.28;;;12.10;99.90;;;;;;5028936;28;20042;-81
2022/10/10 01:44:53;;;;;;;5.97;2.10;;;12.10;99.90;;;;;;5024740;28;20530;-81
2022/10/10 01:47:21;;;;;;;5.40;1.85;;;12.10;99.90;;;;;;5018465;28;20041;-81
2022/10/10 01:49:50;;;;;;;4.82;2.17;;;12.20;99.90;;;;;;5036221;28;20099;-81
2022/10/10 01:52:31;;;;;;;6.00;2.30;;;12.20;99.90;;;;;;5048499;28;20049;-81
2022/10/10 01:55:09;;;;;;;5.57;2.00;;;12.20;99.90;;;;;;5043185;28;20112;-81
2022/10/10 01:57:44;;;;;;;6.75;1.98;;;12.20;99.90;;;;;;5033904;28;20045;-81
2022/10/10 02:00:13;;;;;;;4.93;2.30;;;12.20;99.90;;;;;;5027563;28;20105;-81
2022/10/10 02:02:47;;;;;;;4.65;2.10;;;12.30;99.90;;;;;;5038487;28;20033;-81
2022/10/10 02:05:19;;;;;;;7.78;2.50;;;12.30;99.90;;;;;;5038458;28;20425;-81
2022/10/10 02:07:49;;;;;;;4.78;1.90;;;12.30;99.90;;;;;;5037180;28;20048;-80
2022/10/10 02:10:20;;;;;;;5.75;2.45;;;12.30;99.90;;;;;;5031919;28;20056;-80
2022/10/10 02:12:48;;;;;;;3.63;2.20;;;12.30;99.90;;;;;;5039142;28;20497;-81
2022/10/10 02:15:18;;;;;;;7.07;2.10;;;12.30;99.90;;;;;;5036813;28;20060;-81
2022/10/10 02:17:47;;;;;;;6.07;2.20;;;12.30;99.90;;;;;;5030884;28;20050;-81
2022/10/10 02:20:16;;;;;;;7.80;2.30;;;12.30;99.90;;;;;;5024901;28;20307;-81
2022/10/10 02:22:44;;;;;;;6.97;2.28;;;12.30;99.90;;;;;;5034400;28;20057;-81
2022/10/10 02:25:12;;;;;;;5.68;2.10;;;12.30;99.90;;;;;;5040413;28;20068;-81
2022/10/10 02:27:44;;;;;;;6.47;2.40;;;12.30;99.90;;;;;;5043701;28;20040;-81
2022/10/10 02:30:12;;;;;;;4.45;2.20;;;12.50;99.90;;;;;;5045610;28;20056;-81
2022/10/10 02:32:43;;;;;;;6.85;2.70;;;12.30;99.90;;;;;;5032099;28;20045;-81
2022/10/10 02:35:14;;;;;;;6.18;2.28;;;12.30;99.90;;;;;;5044615;28;20051;-81
2022/10/10 02:37:42;;;;;;;6.28;2.42;;;12.40;99.90;;;;;;5037914;28;20080;-81
2022/10/10 02:40:10;;;;;;;4.47;2.40;;;12.40;99.90;;;;;;5036981;28;20056;-81
2022/10/10 02:42:38;;;;;;;4.97;2.25;;;12.40;99.90;;;;;;5037376;28;20041;-81
2022/10/10 02:45:06;;;;;;;4.32;2.40;;;12.40;99.90;;;;;;5040842;28;20048;-81
2022/10/10 02:47:33;;;;;;;5.22;2.30;;;12.40;99.90;;;;;;5037115;28;20049;-81
2022/10/10 02:50:01;;;;;;;6.03;2.53;;;12.40;99.90;;;;;;5033519;28;20056;-81
2022/10/10 02:52:28;;;;;;;6.70;2.15;;;12.40;99.90;;;;;;5031766;28;20046;-81
2022/10/10 02:54:55;;;;;;;6.88;2.50;;;12.40;99.90;;;;;;5029074;28;20042;-81
2022/10/10 02:57:22;;;;;;;5.00;2.60;;;12.40;99.90;;;;;;5039563;28;20052;-81
2022/10/10 02:59:49;;;;;;;5.60;2.20;;;12.40;99.90;;;;;;5044584;28;20433;-81
2022/10/10 03:02:15;;;;;;;5.00;2.42;;;12.40;99.90;;;;;;5031713;28;20045;-81
2022/10/10 03:04:43;;;;;;;5.88;2.30;;;12.40;99.90;;;;;;5031002;28;20053;-81
2022/10/10 03:07:12;;;;;;;5.22;2.60;;;12.40;99.90;;;;;;5017543;28;20049;-80
2022/10/10 03:09:39;;;;;;;4.45;2.30;;;12.40;99.90;;;;;;5038962;28;20060;-81
2022/10/10 03:12:06;;;;;;;5.75;2.47;;;12.40;99.90;;;;;;5040578;28;20112;-81
2022/10/10 03:14:33;;;;;;;4.45;2.38;;;12.50;99.90;;;;;;5044282;28;20727;-81
2022/10/10 03:16:59;;;;;;;4.35;2.33;;;12.40;99.90;;;;;;5031718;28;20050;-81
2022/10/10 03:19:26;;;;;;;7.05;2.55;;;12.50;99.90;;;;;;5030707;28;20049;-81
2022/10/10 03:21:53;;;;;;;9.15;2.63;;;12.50;99.90;;;;;;5031727;28;20056;-81
2022/10/10 03:24:22;;;;;;;5.35;2.42;;;12.50;99.90;;;;;;5050829;28;20041;-80
2022/10/10 03:26:48;;;;;;;4.05;2.33;;;12.50;99.90;;;;;;5027369;28;20045;-81
2022/10/10 03:29:15;;;;;;;5.32;2.58;;;12.50;99.90;;;;;;5041271;28;20045;-81
2022/10/10 03:31:42;;;;;;;5.57;2.53;;;12.50;99.90;;;;;;5028173;28;20041;-81
2022/10/10 03:34:11;;;;;;;7.43;2.50;;;12.50;99.90;;;;;;5039131;28;20425;-81
2022/10/10 03:36:37;;;;;;;5.20;2.22;;;12.50;99.90;;;;;;5042981;28;20037;-81
2022/10/10 03:39:06;;;;;;;9.23;2.50;;;12.50;99.90;;;;;;5030783;28;20052;-81
2022/10/10 03:41:35;;;;;;;8.27;2.65;;;12.50;99.90;;;;;;5017037;28;20518;-81
2022/10/10 03:44:01;;;;;;;4.50;2.40;;;12.50;99.90;;;;;;5031638;28;20044;-81
2022/10/10 03:46:28;;;;;;;8.45;2.45;;;12.50;99.90;;;;;;5042732;28;20044;-81
2022/10/10 03:48:55;;;;;;;6.32;2.40;;;12.50;99.90;;;;;;5050552;28;20409;-81
2022/10/10 03:51:22;;;;;;;5.38;2.42;;;12.50;99.90;;;;;;5036999;28;20502;-81
2022/10/10 03:53:49;;;;;;;5.50;2.55;;;12.50;99.90;;;;;;5030576;28;20049;-81
2022/10/10 03:56:16;;;;;;;8.35;2.97;;;12.50;99.90;;;;;;5031346;28;20119;-81
2022/10/10 03:58:44;;;;;;;8.05;2.85;;;12.50;99.90;;;;;;5041635;28;20044;-81
2022/10/10 04:01:11;;;;;;;6.15;2.83;;;12.50;99.90;;;;;;5031354;28;20041;-81
2022/10/10 04:03:38;;;;;;;7.05;2.40;;;12.50;99.90;;;;;;5017520;28;20049;-81
2022/10/10 04:06:05;;;;;;;7.63;2.80;;;12.50;99.90;;;;;;5029144;28;20120;-81
2022/10/10 04:08:32;;;;;;;7.22;2.90;;;12.50;99.90;;;;;;5029901;28;20049;-81
2022/10/10 04:10:59;;;;;;;5.70;2.40;;;12.50;99.90;;;;;;5038246;28;20410;-81
2022/10/10 04:13:26;;;;;;;7.45;2.65;;;12.60;99.90;;;;;;5033679;28;20548;-81
2022/10/10 04:15:56;;;;;;;6.05;2.58;;;12.60;99.90;;;;;;5013599;28;20056;-81
2022/10/10 04:18:23;;;;;;;5.72;2.53;;;12.60;99.90;;;;;;5037367;28;20045;-81
2022/10/10 04:20:50;;;;;;;7.00;2.70;;;12.60;99.90;;;;;;5041677;28;20056;-81
2022/10/10 04:23:17;;;;;;;5.72;2.53;;;12.60;99.90;;;;;;5024626;28;20556;-81
2022/10/10 04:25:44;;;;;;;6.10;2.50;;;12.60;99.90;;;;;;5040465;28;20048;-81
2022/10/10 04:28:12;;;;;;;6.50;2.55;;;12.60;99.90;;;;;;5030762;28;20120;-81
2022/10/10 04:30:39;;;;;;;7.40;2.55;;;12.60;99.90;;;;;;5030022;28;20045;-81
2022/10/10 04:33:07;;;;;;;9.45;2.95;;;12.60;99.90;;;;;;5023903;28;20037;-81
2022/10/10 04:35:34;;;;;;;7.18;2.75;;;12.60;99.90;;;;;;5035730;28;20517;-81
2022/10/10 04:38:01;;;;;;;6.18;2.67;;;12.70;99.90;;;;;;5028970;28;20064;-81
2022/10/10 04:40:28;;;;;;;6.00;2.63;;;12.60;99.90;;;;;;5029806;28;20049;-81
2022/10/10 04:42:55;;;;;;;8.48;2.83;;;12.60;99.90;;;;;;5020973;28;20047;-81
2022/10/10 04:45:25;;;;;;;7.55;2.42;;;12.60;99.90;;;;;;5038857;28;20044;-81
2022/10/10 04:47:52;;;;;;;8.85;3.10;;;12.60;99.90;;;;;;5037704;28;20041;-81
2022/10/10 04:50:20;;;;;;;8.77;3.15;;;12.70;99.90;;;;;;5041040;28;20052;-81
2022/10/10 04:52:47;;;;;;;5.97;2.50;;;12.60;99.90;;;;;;5027368;28;20061;-81
2022/10/10 04:55:14;;;;;;;7.45;2.88;;;12.60;99.90;;;;;;5029240;28;20284;-81
2022/10/10 04:57:41;;;;;;;6.78;2.63;;;12.70;99.90;;;;;;5036672;28;20038;-81
2022/10/10 05:00:09;;;;;;;5.28;2.67;;;12.70;99.90;;;;;;5047572;28;20056;-81
2022/10/10 05:02:36;;;;;;;4.40;2.67;;;12.70;99.90;;;;;;5031448;28;20052;-81
2022/10/10 05:05:03;;;;;;;6.43;2.67;;;12.60;99.90;;;;;;5009318;28;20509;-81
2022/10/10 05:07:31;;;;;;;7.32;3.42;;;12.70;99.90;;;;;;5027329;28;20402;-80
2022/10/10 05:09:58;;;;;;;8.15;3.28;;;12.70;99.90;;;;;;5032232;28;20056;-81
2022/10/10 05:12:25;;;;;;;9.38;3.63;;;12.70;99.90;;;;;;5038890;28;20052;-80
2022/10/10 05:14:52;;;;;;;9.43;4.28;;;12.70;99.90;;;;;;5029108;28;20038;-81
2022/10/10 05:17:19;;;;;;;13.60;5.72;;;12.70;99.90;;;;;;5018603;28;20828;-81
2022/10/10 05:19:46;;;;;;;13.07;6.43;;;12.70;99.90;;;;;;5033369;28;20108;-81
2022/10/10 05:22:13;;;;;;;13.82;6.90;;;12.70;99.90;;;;;;5018098;28;20068;-80
2022/10/10 05:24:41;;;;;;;18.73;8.30;;;12.70;99.90;;;;;;5027200;28;20050;-80
2022/10/10 05:27:08;;;;;;;16.50;7.85;;;12.70;99.90;;;;;;5021560;28;20069;-81
2022/10/10 05:29:35;;;;;;;11.40;5.70;;;12.70;99.90;;;;;;5009197;28;20060;-81
2022/10/10 05:32:02;;;;;;;8.43;4.50;;;12.70;99.90;;;;;;5029627;28;20607;-81
2022/10/10 05:34:29;;;;;;;8.98;3.85;;;12.70;99.90;;;;;;5034869;28;20116;-81
2022/10/10 05:36:56;;;;;;;5.63;3.05;;;12.70;99.90;;;;;;5035053;28;20518;-80
2022/10/10 05:39:23;;;;;;;7.70;3.05;;;12.70;99.90;;;;;;5044461;28;20037;-80
2022/10/10 05:41:52;;;;;;;5.35;2.90;;;12.70;99.90;;;;;;5049156;28;20104;-82
2022/10/10 05:44:19;;;;;;;7.50;2.97;;;12.70;99.90;;;;;;5031872;28;20041;-82
2022/10/10 05:46:45;;;;;;;6.97;2.80;;;12.70;99.90;;;;;;5037075;28;20053;-80
2022/10/10 05:49:12;;;;;;;8.77;3.25;;;12.70;99.90;;;;;;5032905;28;20052;-82
2022/10/10 05:51:39;;;;;;;8.02;2.90;;;12.70;99.90;;;;;;5032546;28;20046;-83
2022/10/10 05:54:06;;;;;;;8.98;3.22;;;12.70;99.90;;;;;;5029837;28;20053;-82
2022/10/10 05:56:33;;;;;;;10.25;2.90;;;12.70;99.90;;;;;;5040563;28;20037;-82
2022/10/10 05:59:01;;;;;;;12.82;3.47;;;12.70;99.90;;;;;;5043928;28;20049;-83
2022/10/10 06:01:28;;;;;;;7.88;2.92;;;12.70;99.90;;;;;;5038027;28;20041;-81
2022/10/10 06:03:55;;;;;;;8.98;3.40;;;12.80;99.90;;;;;;5042476;28;20049;-81
2022/10/10 06:06:22;;;;;;;7.63;3.45;;;12.70;99.90;;;;;;5031845;28;20111;-81
2022/10/10 06:08:49;;;;;;;8.43;2.80;;;12.70;99.90;;;;;;5039613;28;20064;-83
2022/10/10 06:11:18;;;;;;;9.30;2.67;;;12.70;99.90;;;;;;5032238;28;20053;-84
2022/10/10 06:13:46;;;;;;;6.43;3.22;;;12.70;99.90;;;;;;5017163;28;20045;-83
2022/10/10 06:16:14;;;;;;;7.18;3.05;;;12.70;99.90;;;;;;5037097;28;20048;-82
2022/10/10 06:18:41;;;;;;;8.00;3.38;;;12.70;99.90;;;;;;5043488;28;20041;-82
2022/10/10 06:21:08;;;;;;;10.35;3.78;;;12.70;99.90;;;;;;5033488;28;20042;-82
2022/10/10 06:23:35;;;;;;;7.75;3.42;;;12.70;99.90;;;;;;5031447;28;20047;-80
2022/10/10 06:26:03;;;;;;;19.17;3.97;;;12.70;99.90;;;;;;5038571;28;20041;-80
2022/10/10 06:28:30;;;;;;;11.55;3.47;;;12.80;99.90;;;;;;5025860;28;20057;-87
2022/10/10 06:31:00;;;;;;;8.43;3.63;;;12.70;99.90;;;;;;5021457;28;20060;-85
2022/10/10 06:33:28;;;;;;;8.45;3.83;;;12.80;99.90;;;;;;5045360;28;20044;-87
2022/10/10 06:35:56;;;;;;;8.82;3.55;;;12.80;99.90;;;;;;5050343;28;20055;-87
2022/10/10 06:38:22;;;;;;;10.15;3.88;;;12.80;99.90;;;;;;5066338;22;20490;-90
2022/10/10 06:40:49;;;;;;;9.40;3.53;;;12.80;99.90;;;;;;5012061;28;20059;-90
2022/10/10 06:43:17;;;;;;;10.30;3.60;;;12.90;99.90;;;;;;5018941;28;20046;-89
2022/10/10 06:45:45;;;;;;;12.05;4.00;;;12.90;99.90;;;;;;5025945;28;20573;-91
2022/10/10 06:48:13;;;;;;;10.13;3.88;;;12.90;99.90;;;;;;5026573;28;20140;-88
2022/10/10 06:50:42;;;;;;;9.85;3.88;;;12.90;99.90;;;;;;5033756;28;20046;-89
2022/10/10 06:53:09;;;;;;;12.30;3.92;;;12.90;99.90;;;;;;5040675;28;20060;-91
2022/10/10 06:55:36;;;;;;;7.78;3.40;;;13.00;99.90;;;;;;5024830;28;20046;-91
2022/10/10 06:58:03;;;;;;;8.85;3.70;;;13.00;99.90;;;;;;5017892;28;20096;-91
2022/10/10 07:00:30;;;;;;;11.20;3.42;;;13.00;99.90;;;;;;5010578;28;20048;-88
2022/10/10 07:02:57;;;;;;;7.80;3.25;;;13.00;99.90;;;;;;5016365;28;20418;-87
2022/10/10 07:05:24;;;;;;;7.22;3.20;;;13.10;99.90;;;;;;5019882;28;20052;-88
2022/10/10 07:07:53;;;;;;;9.50;3.65;;;13.10;99.90;;;;;;5028099;28;20049;-88
2022/10/10 07:10:19;;;;;;;8.82;3.38;;;13.20;99.90;;;;;;5032446;28;20052;-89
2022/10/10 07:12:47;;;;;;;10.07;3.33;;;13.20;99.90;;;;;;5022110;28;20558;-90
2022/10/10 07:15:14;;;;;;;8.40;3.28;;;13.20;99.90;;;;;;5031070;28;20077;-87
2022/10/10 07:17:41;;;;;;;9.45;3.50;;;13.30;99.90;;;;;;5020239;28;20045;-88
2022/10/10 07:20:08;;;;;;;8.65;3.35;;;13.30;99.90;;;;;;5032392;28;20055;-89
2022/10/10 07:22:35;;;;;;;8.82;3.53;;;13.40;99.90;;;;;;5032562;28;20599;-89
2022/10/10 07:25:04;;;;;;;16.73;4.55;;;13.40;99.90;;;;;;5031511;28;20054;-89
2022/10/10 07:27:31;;;;;;;9.93;3.90;;;13.50;99.90;;;;;;5029401;28;20128;-90
2022/10/10 07:29:58;;;;;;;13.27;4.10;;;13.50;99.90;;;;;;5017946;28;20116;-88
2022/10/10 07:32:25;;;;;;;7.25;3.72;;;13.50;99.90;;;;;;5030334;28;20408;-89
2022/10/10 07:34:52;;;;;;;12.18;3.53;;;13.50;99.90;;;;;;5021645;28;20042;-88
2022/10/10 07:37:19;;;;;;;13.82;3.80;;;13.60;99.90;;;;;;5019906;28;20053;-85
2022/10/10 07:39:46;;;;;;;10.23;3.80;;;13.70;99.90;;;;;;5024456;28;20053;-83
2022/10/10 07:42:14;;;;;;;10.48;5.28;;;13.70;99.90;;;;;;5021084;28;20046;-84
2022/10/10 07:44:41;;;;;;;8.90;4.35;;;13.80;99.90;;;;;;5031042;28;20140;-84
2022/10/10 07:47:08;;;;;;;9.80;3.50;;;13.80;99.90;;;;;;5031680;28;20448;-87
2022/10/10 07:49:35;;;;;;;11.70;4.60;;;14.00;99.90;;;;;;5023250;28;20053;-87
2022/10/10 07:52:02;;;;;;;10.20;4.07;;;13.90;99.90;;;;;;5021895;28;20049;-85
2022/10/10 07:54:29;;;;;;;8.20;3.80;;;13.90;99.90;;;;;;5030029;28;20045;-87
2022/10/10 07:56:57;;;;;;;13.63;3.60;;;14.00;99.90;;;;;;5031448;28;20055;-85
2022/10/10 07:59:25;;;;;;;11.23;3.88;;;14.00;99.90;;;;;;5022765;28;20042;-85
2022/10/10 08:01:53;;;;;;;15.13;4.20;;;14.10;99.90;;;;;;5019572;28;20045;-88
2022/10/10 08:04:20;;;;;;;16.70;3.88;;;14.10;99.90;;;;;;5011879;28;20418;-86
2022/10/10 08:06:47;;;;;;;12.77;4.47;;;14.10;99.90;;;;;;5015922;28;20038;-87
2022/10/10 08:09:14;;;;;;;7.65;3.78;;;14.10;99.90;;;;;;5013505;28;20069;-86
2022/10/10 08:11:41;;;;;;;14.40;4.82;;;14.20;99.90;;;;;;5022757;28;20037;-87
2022/10/10 08:14:08;;;;;;;6.57;3.67;;;14.20;99.90;;;;;;5014005;28;20053;-86
2022/10/10 08:16:36;;;;;;;7.47;3.40;;;14.20;99.90;;;;;;5024884;28;20038;-86
2022/10/10 08:19:03;;;;;;;9.57;4.03;;;14.30;99.90;;;;;;5021474;28;20056;-83
2022/10/10 08:21:30;;;;;;;13.57;5.07;;;14.30;99.90;;;;;;5022360;28;20041;-85
2022/10/10 08:23:57;;;;;;;13.57;4.60;;;14.40;99.90;;;;;;5006223;28;20038;-86
2022/10/10 08:26:24;;;;;;;10.30;4.10;;;14.40;99.90;;;;;;5013183;28;20128;-88
2022/10/10 08:28:51;;;;;;;11.73;4.20;;;14.40;99.90;;;;;;5014066;28;20037;-85
2022/10/10 08:31:20;;;;;;;9.52;4.15;;;14.40;99.90;;;;;;5012885;28;20046;-86
2022/10/10 08:33:49;;;;;;;9.50;4.10;;;14.50;99.90;;;;;;5011228;28;20049;-86
2022/10/10 08:36:17;;;;;;;15.93;4.05;;;14.50;99.90;;;;;;5010480;28;20418;-85
2022/10/10 08:38:44;;;;;;;9.23;3.97;;;14.60;99.90;;;;;;5006641;28;20050;-86
2022/10/10 08:41:17;;;;;;;8.70;3.40;;;14.60;99.90;;;;;;5022171;28;20043;-85
2022/10/10 08:43:48;;;;;;;7.43;3.60;;;14.60;99.90;;;;;;5033466;28;20041;-84
2022/10/10 08:46:19;;;;;;;11.52;3.95;;;14.70;99.90;;;;;;5023733;28;20048;-85
2022/10/10 08:48:48;;;;;;;10.90;3.95;;;14.70;99.90;;;;;;5027531;28;20586;-84
2022/10/10 08:51:21;;;;;;;8.70;3.90;;;14.80;99.90;;;;;;5019217;28;20061;-84
2022/10/10 08:53:50;;;;;;;9.85;3.67;;;14.80;99.90;;;;;;5027379;28;20076;-85
2022/10/10 08:56:20;;;;;;;10.18;3.63;;;14.90;99.90;;;;;;5029862;28;20441;-81
2022/10/10 08:58:54;;;;;;;11.68;4.10;;;14.90;99.90;;;;;;5030105;28;20084;-83
2022/10/10 09:01:24;;;;;;;10.10;3.70;;;15.00;99.90;;;;;;5031548;28;20059;-82
2022/10/10 09:03:53;;;;;;;7.57;3.30;;;15.00;99.90;;;;;;5013874;28;20048;-81
2022/10/10 09:06:34;;;;;;;8.32;3.67;;;15.00;99.90;;;;;;5002544;28;20040;-82
2022/10/10 09:09:06;;;;;;;8.32;2.70;;;15.10;99.90;;;;;;5001081;28;20039;-82
2022/10/10 09:11:45;;;;;;;7.70;3.05;;;15.20;99.90;;;;;;5001439;28;20049;-81
2022/10/10 09:14:22;;;;;;;8.13;3.47;;;15.20;99.90;;;;;;5008248;28;20050;-82
2022/10/10 09:16:54;;;;;;;10.95;3.90;;;15.20;99.90;;;;;;5004935;28;20109;-81
2022/10/10 09:19:33;;;;;;;6.75;3.28;;;15.30;99.90;;;;;;5010536;28;20050;-82
2022/10/10 09:22:05;;;;;;;9.48;3.70;;;15.30;99.90;;;;;;4991114;28;20060;-83
2022/10/10 09:24:38;;;;;;;10.63;3.80;;;15.30;99.90;;;;;;5003798;28;20045;-83
2022/10/10 09:27:06;;;;;;;12.70;4.00;;;15.40;99.90;;;;;;4994525;28;20106;-83
2022/10/10 09:29:37;;;;;;;11.00;4.95;;;15.40;99.90;;;;;;4993757;28;20046;-83
2022/10/10 09:32:09;;;;;;;9.05;3.53;;;15.40;99.90;;;;;;5006023;28;20096;-83
2022/10/10 09:34:40;;;;;;;10.75;3.92;;;15.40;99.90;;;;;;5005465;28;20064;-83
2022/10/10 09:37:14;;;;;;;12.35;3.72;;;15.40;99.90;;;;;;5018169;28;20065;-83
2022/10/10 09:39:44;;;;;;;6.70;2.75;;;15.50;99.90;;;;;;5014623;28;20042;-83
2022/10/10 09:42:12;;;;;;;9.80;3.80;;;15.50;99.90;;;;;;5007849;28;20499;-82
2022/10/10 09:44:40;;;;;;;7.93;3.63;;;15.60;99.90;;;;;;5016482;28;20053;-83
2022/10/10 09:47:09;;;;;;;6.43;2.78;;;15.60;99.90;;;;;;5001481;28;20042;-83
2022/10/10 09:49:37;;;;;;;12.20;3.65;;;15.60;99.90;;;;;;5007370;28;20037;-83
2022/10/10 09:52:20;;;;;;;10.95;3.80;;;15.70;99.90;;;;;;5009479;28;20053;-83
2022/10/10 09:54:48;;;;;;;7.53;2.97;;;15.70;99.90;;;;;;5009148;28;20076;-83
2022/10/10 09:57:16;;;;;;;9.80;2.72;;;15.80;99.90;;;;;;5009688;28;20045;-82
2022/10/10 09:59:44;;;;;;;11.07;3.03;;;15.80;99.90;;;;;;5009526;28;20046;-83
2022/10/10 10:02:17;;;;;;;7.32;2.78;;;15.90;99.90;;;;;;5005114;28;20054;-83
2022/10/10 10:04:46;;;;;;;9.20;3.63;;;15.90;99.90;;;;;;5006058;28;20065;-83
2022/10/10 10:07:27;;;;;;;8.90;3.00;;;15.90;99.90;;;;;;5009329;28;20057;-83
2022/10/10 10:09:57;;;;;;;12.70;3.78;;;16.00;99.90;;;;;;5009371;28;20060;-83
2022/10/10 10:12:25;;;;;;;8.20;3.22;;;16.00;99.90;;;;;;5009339;28;20050;-83
2022/10/10 10:14:58;;;;;;;9.27;2.95;;;16.00;99.90;;;;;;5007235;28;20054;-83
2022/10/10 10:17:25;;;;;;;10.73;3.60;;;16.00;99.90;;;;;;5001963;28;20411;-84
2022/10/10 10:19:54;;;;;;;7.65;3.40;;;16.00;99.90;;;;;;5009437;28;20513;-83
2022/10/10 10:22:27;;;;;;;9.90;2.95;;;16.00;99.90;;;;;;5007967;28;20046;-83
2022/10/10 10:24:54;;;;;;;10.38;3.30;;;16.00;99.90;;;;;;5010931;28;20056;-83
2022/10/10 10:27:22;;;;;;;12.32;3.05;;;16.00;99.90;;;;;;5011072;28;20030;-83
2022/10/10 10:29:51;;;;;;;8.15;3.70;;;16.00;99.90;;;;;;5012646;28;20395;-83
2022/10/10 10:32:30;;;;;;;9.63;3.53;;;16.00;99.90;;;;;;5012861;28;20050;-83
2022/10/10 10:35:12;;;;;;;13.05;4.72;;;16.00;99.90;;;;;;5012472;28;20125;-83
2022/10/10 10:37:47;;;;;;;9.25;3.63;;;16.00;99.90;;;;;;5012945;28;20041;-83
2022/10/10 10:40:31;;;;;;;12.85;4.90;;;16.10;99.90;;;;;;5012408;28;20681;-83
2022/10/10 10:43:29;;;;;;;10.40;3.92;;;16.10;99.90;;;;;;5009990;28;20053;-83
2022/10/10 10:46:08;;;;;;;10.50;3.60;;;16.10;99.90;;;;;;5004947;28;20073;-87
2022/10/10 10:48:52;;;;;;;21.30;3.50;;;16.10;99.90;;;;;;5013161;28;20038;-87
2022/10/10 10:51:56;;;;;;;14.38;6.00;;;16.10;99.90;;;;;;5010754;28;20056;-83
2022/10/10 10:54:35;;;;;;;10.93;4.47;;;16.10;99.90;;;;;;4937190;28;20441;-82
2022/10/10 10:57:07;;;;;;;10.20;3.58;;;16.30;99.90;;;;;;5002405;28;20109;-83
2022/10/10 10:59:45;;;;;;;9.13;3.83;;;16.20;99.90;;;;;;5011029;28;20064;-82
2022/10/10 11:02:38;;;;;;;9.23;3.10;;;16.20;99.90;;;;;;5012359;28;20495;-80
2022/10/10 11:05:30;;;;;;;11.70;3.63;;;16.30;99.90;;;;;;5017401;28;20041;-89
2022/10/10 11:08:09;;;;;;;12.20;3.90;;;16.20;99.90;;;;;;5028425;28;20060;-92
2022/10/10 11:10:39;;;;;;;11.52;3.50;;;16.30;99.90;;;;;;5021797;28;20037;-90
2022/10/10 11:13:11;;;;;;;12.73;3.80;;;16.40;99.90;;;;;;5026336;28;20122;-91
2022/10/10 11:15:40;;;;;;;7.97;3.40;;;16.40;99.90;;;;;;5037222;28;20062;-90
2022/10/10 11:18:11;;;;;;;7.43;3.03;;;16.40;99.90;;;;;;5017141;28;20103;-91
2022/10/10 11:20:42;;;;;;;9.10;3.42;;;16.40;99.90;;;;;;5012966;28;20054;-91
2022/10/10 11:23:13;;;;;;;8.77;3.20;;;16.50;99.90;;;;;;5013551;28;20064;-93
2022/10/10 11:25:43;;;;;;;10.57;4.00;;;16.50;99.90;;;;;;5014640;28;20049;-90
2022/10/10 11:28:13;;;;;;;10.80;3.28;;;16.50;99.90;;;;;;5016317;28;20073;-90
2022/10/10 11:30:44;;;;;;;10.10;3.22;;;16.50;99.90;;;;;;5004499;28;20081;-91
2022/10/10 11:33:15;;;;;;;14.20;3.70;;;16.50;99.90;;;;;;5008911;28;20144;-89
2022/10/10 11:35:46;;;;;;;12.88;3.88;;;16.60;99.90;;;;;;5010524;28;20104;-91
2022/10/10 11:38:19;;;;;;;9.35;3.15;;;16.60;99.90;;;;;;5010374;28;20141;-91
2022/10/10 11:40:53;;;;;;;18.85;4.30;;;16.60;99.90;;;;;;5013455;28;20038;-90
2022/10/10 11:43:29;;;;;;;7.45;3.00;;;16.60;99.90;;;;;;5010423;28;20144;-91
2022/10/10 11:46:01;;;;;;;13.60;4.85;;;16.60;99.90;;;;;;5014068;28;20041;-90
2022/10/10 11:48:36;;;;;;;19.13;6.20;;;16.60;99.90;;;;;;5014782;28;20533;-91
2022/10/10 11:51:11;;;;;;;8.50;3.35;;;16.70;99.90;;;;;;5008821;28;20063;-91
2022/10/10 11:53:44;;;;;;;13.43;4.07;;;16.70;99.90;;;;;;5010472;28;20149;-89
2022/10/10 11:56:19;;;;;;;9.27;3.30;;;16.70;99.90;;;;;;5006654;28;20038;-91
2022/10/10 11:58:49;;;;;;;13.15;3.78;;;16.70;99.90;;;;;;5009314;28;20045;-91
2022/10/10 12:01:20;;;;;;;11.60;3.63;;;16.70;99.90;;;;;;5009203;28;20056;-91
2022/10/10 12:03:47;;;;;;;12.13;3.80;;;16.70;99.90;;;;;;5006884;28;20076;-91
2022/10/10 12:06:20;;;;;;;13.23;3.70;;;16.80;99.90;;;;;;5000651;28;20423;-91
2022/10/10 12:08:54;;;;;;;10.80;3.35;;;16.80;99.90;;;;;;5016971;28;20057;-90
2022/10/10 12:11:24;;;;;;;12.70;4.00;;;16.90;99.90;;;;;;5007904;28;20046;-89
2022/10/10 12:13:54;;;;;;;19.35;4.45;;;16.90;99.90;;;;;;5017562;28;20065;-89
2022/10/10 12:16:23;;;;;;;10.40;3.58;;;16.90;99.90;;;;;;5001074;28;20048;-89
2022/10/10 12:18:53;;;;;;;11.52;3.78;;;16.90;99.90;;;;;;5009384;28;20054;-90
2022/10/10 12:21:23;;;;;;;14.43;3.70;;;16.90;99.90;;;;;;5010426;28;20045;-88
2022/10/10 12:24:00;;;;;;;10.88;3.13;;;16.90;99.90;;;;;;5009750;28;20140;-89
2022/10/10 12:27:06;;;;;;;13.35;3.63;;;16.90;99.90;;;;;;5008392;28;20438;-89
2022/10/10 12:29:44;;;;;;;12.02;3.42;;;17.00;99.90;;;;;;4989472;28;20061;-91
2022/10/10 12:32:24;;;;;;;11.38;3.58;;;17.00;99.90;;;;;;5010474;28;20129;-90
2022/10/10 12:35:00;;;;;;;18.35;4.47;;;17.00;99.90;;;;;;5008399;28;20537;-89
2022/10/10 12:37:28;;;;;;;12.43;4.88;;;17.00;99.90;;;;;;5003455;28;20116;-89
2022/10/10 12:40:21;;;;;;;9.50;3.28;;;17.00;99.90;;;;;;5052818;22;20164;-84
2022/10/10 12:43:16;;;;;;;14.73;3.00;;;17.00;99.90;;;;;;5049801;28;20493;-84
2022/10/10 12:45:57;;;;;;;14.70;3.83;;;17.10;99.90;;;;;;5045619;28;20059;-84
2022/10/10 12:48:25;;;;;;;13.15;4.05;;;17.10;99.90;;;;;;5042247;28;20041;-82
2022/10/10 12:50:57;;;;;;;10.40;3.72;;;17.10;99.90;;;;;;5031086;28;20045;-82
2022/10/10 12:53:25;;;;;;;14.48;4.10;;;17.30;99.90;;;;;;5041978;28;20128;-82
2022/10/10 12:55:56;;;;;;;15.32;3.70;;;17.20;99.90;;;;;;5048511;28;20033;-82
2022/10/10 12:58:26;;;;;;;10.63;3.00;;;17.10;99.90;;;;;;5041838;28;20041;-82